createdAt,value
2023-03-25T00:00:24.653Z,2.70
2023-03-25T00:05:26.566Z,3.67
2023-03-25T00:10:28.527Z,3.50
2023-03-25T00:15:30.155Z,3.72
2023-03-25T00:20:32.454Z,3.10
2023-03-25T00:25:34.983Z,4.15
2023-03-25T00:30:37.738Z,2.67
2023-03-25T00:35:44.982Z,3.15
2023-03-25T00:40:49.414Z,3.28
2023-03-25T00:45:55.019Z,4.20
2023-03-25T00:50:56.480Z,3.85
2023-03-25T00:55:58.305Z,3.80
2023-03-25T01:00:59.694Z,3.22
2023-03-25T01:06:01.126Z,3.33
2023-03-25T01:11:02.530Z,3.85
2023-03-25T01:16:06.622Z,4.30
2023-03-25T01:21:08.693Z,3.70
2023-03-25T01:26:10.465Z,4.43
2023-03-25T01:31:13.516Z,3.80
2023-03-25T01:36:14.964Z,4.10
2023-03-25T01:41:16.707Z,3.10
2023-03-25T01:46:19.829Z,3.30
2023-03-25T01:51:24.348Z,4.03
2023-03-25T01:56:27.419Z,3.58
2023-03-25T02:01:28.943Z,2.97
2023-03-25T02:06:53.939Z,3.08
2023-03-25T02:11:55.537Z,3.72
2023-03-25T02:17:15.545Z,3.95
2023-03-25T02:22:37.679Z,3.50
2023-03-25T02:27:47.595Z,4.22
2023-03-25T02:32:51.750Z,4.13
2023-03-25T02:38:06.486Z,3.10
2023-03-25T02:43:34.135Z,3.70
2023-03-25T02:48:56.092Z,3.65
2023-03-25T02:54:01.659Z,3.22
2023-03-25T02:59:04.313Z,3.92
2023-03-25T03:04:05.917Z,4.20
2023-03-25T03:09:27.297Z,3.90
2023-03-25T03:14:34.479Z,3.65
2023-03-25T03:19:41.753Z,3.85
2023-03-25T03:24:46.294Z,4.20
2023-03-25T03:29:49.428Z,3.65
2023-03-25T03:34:59.555Z,6.60
2023-03-25T03:40:02.118Z,3.88
2023-03-25T03:45:16.477Z,3.80
2023-03-25T03:50:20.372Z,4.63
2023-03-25T03:55:29.243Z,3.65
2023-03-25T04:00:42.021Z,4.87
2023-03-25T04:05:51.633Z,5.10
2023-03-25T04:15:55.049Z,4.85
2023-03-25T04:20:56.520Z,5.15
2023-03-25T04:25:58.159Z,5.00
2023-03-25T04:31:00.607Z,4.40
2023-03-25T04:36:03.660Z,4.47
2023-03-25T04:41:06.950Z,4.10
2023-03-25T04:46:12.539Z,4.57
2023-03-25T04:51:15.483Z,4.70
2023-03-25T04:56:18.072Z,5.10
2023-03-25T05:01:21.601Z,4.32
2023-03-25T05:06:25.396Z,4.13
2023-03-25T05:11:28.905Z,3.50
2023-03-25T05:16:30.347Z,4.97
2023-03-25T05:21:31.774Z,4.43
2023-03-25T05:26:34.620Z,4.47
2023-03-25T05:31:36.951Z,3.55
2023-03-25T05:36:38.371Z,3.90
2023-03-25T05:41:39.817Z,3.33
2023-03-25T05:46:41.210Z,4.47
2023-03-25T05:51:45.133Z,4.65
2023-03-25T05:56:46.761Z,3.33
2023-03-25T06:01:50.066Z,3.97
2023-03-25T06:06:51.434Z,3.45
2023-03-25T06:11:53.679Z,3.88
2023-03-25T06:16:56.945Z,2.85
2023-03-25T06:21:58.337Z,3.25
2023-03-25T06:26:59.729Z,3.28
2023-03-25T06:32:01.194Z,3.67
2023-03-25T06:37:02.633Z,3.00
2023-03-25T06:42:04.770Z,3.40
2023-03-25T06:47:06.748Z,3.75
2023-03-25T06:52:08.147Z,3.83
2023-03-25T06:57:09.605Z,3.35
2023-03-25T07:02:13.585Z,3.00
2023-03-25T07:07:15.301Z,2.78
2023-03-25T07:12:16.773Z,3.90
2023-03-25T07:17:18.440Z,3.50
2023-03-25T07:22:19.814Z,2.92
2023-03-25T07:27:21.247Z,2.30
2023-03-25T07:32:22.706Z,3.65
2023-03-25T07:37:24.198Z,2.95
2023-03-25T07:42:26.829Z,3.17
2023-03-25T07:47:28.337Z,3.13
2023-03-25T07:52:29.750Z,3.83
2023-03-25T07:57:31.176Z,2.75
2023-03-25T08:02:32.632Z,3.15
2023-03-25T08:07:34.259Z,3.47
2023-03-25T08:12:36.799Z,3.13
2023-03-25T08:17:39.133Z,4.32
2023-03-25T08:22:40.592Z,3.72
2023-03-25T08:27:41.996Z,3.53
2023-03-25T08:32:46.223Z,3.13
2023-03-25T08:37:48.253Z,2.75
2023-03-25T08:42:49.684Z,3.28
2023-03-25T08:47:51.076Z,3.10
2023-03-25T08:52:54.734Z,2.85
2023-03-25T08:57:56.285Z,3.17
2023-03-25T09:02:59.560Z,2.95
2023-03-25T09:08:01.117Z,3.33
2023-03-25T09:13:02.641Z,2.60
2023-03-25T09:18:04.763Z,3.95
2023-03-25T09:23:06.656Z,2.90
2023-03-25T09:28:08.044Z,2.63
2023-03-25T09:33:09.448Z,3.08
2023-03-25T09:38:11.117Z,3.33
2023-03-25T09:43:31.512Z,2.88
2023-03-25T09:53:34.329Z,3.45
2023-03-25T09:58:48.717Z,2.65
2023-03-25T10:03:54.984Z,3.72
2023-03-25T10:09:02.821Z,3.78
2023-03-25T10:14:11.921Z,2.67
2023-03-25T10:19:22.411Z,3.25
2023-03-25T10:24:27.337Z,3.20
2023-03-25T10:29:31.728Z,2.85
2023-03-25T10:34:36.192Z,2.92
2023-03-25T10:39:40.017Z,2.60
2023-03-25T10:44:41.508Z,3.03
2023-03-25T10:49:44.569Z,2.50
2023-03-25T10:54:48.157Z,3.03
2023-03-25T11:00:00.767Z,3.05
2023-03-25T11:05:05.088Z,3.38
2023-03-25T11:10:09.321Z,2.75
2023-03-25T11:15:14.850Z,3.08
2023-03-25T11:20:26.601Z,3.17
2023-03-25T11:25:32.676Z,3.10
2023-03-25T11:30:34.205Z,3.80
2023-03-25T11:35:43.499Z,3.28
2023-03-25T11:40:55.908Z,3.38
2023-03-25T11:46:07.195Z,3.05
2023-03-25T11:51:14.030Z,3.10
2023-03-25T11:56:17.719Z,3.25
2023-03-25T12:01:27.919Z,2.03
2023-03-25T12:06:30.029Z,2.40
2023-03-25T12:11:36.640Z,2.47
2023-03-25T12:16:44.166Z,2.97
2023-03-25T12:21:48.641Z,2.85
2023-03-25T12:26:53.133Z,3.15
2023-03-25T12:31:54.547Z,2.65
2023-03-25T12:37:01.938Z,2.83
2023-03-25T12:42:06.387Z,2.45
2023-03-25T12:47:10.590Z,2.97
2023-03-25T12:52:20.030Z,3.60
2023-03-25T12:57:39.668Z,2.97
2023-03-25T13:03:00.912Z,2.65
2023-03-25T13:08:12.497Z,2.85
2023-03-25T13:13:19.262Z,3.40
2023-03-25T13:18:20.947Z,2.80
2023-03-25T13:23:23.581Z,2.55
2023-03-25T13:28:38.205Z,2.28
2023-03-25T13:33:43.090Z,2.50
2023-03-25T13:38:52.437Z,2.70
2023-03-25T13:44:12.358Z,2.90
2023-03-25T13:49:16.933Z,1.80
2023-03-25T13:54:30.989Z,3.00
2023-03-25T14:00:01.808Z,2.40
2023-03-25T14:05:06.313Z,2.22
2023-03-25T14:10:26.584Z,2.17
2023-03-25T14:15:30.269Z,2.92
2023-03-25T14:20:36.047Z,2.42
2023-03-25T14:25:46.737Z,2.00
2023-03-25T14:31:11.405Z,2.22
2023-03-25T14:36:13.051Z,2.38
2023-03-25T14:41:14.541Z,3.38
2023-03-25T14:46:21.652Z,2.83
2023-03-25T14:51:26.015Z,2.33
2023-03-25T14:56:35.654Z,2.97
2023-03-25T15:01:37.692Z,2.35
2023-03-25T15:06:39.213Z,2.10
2023-03-25T15:11:44.810Z,2.17
2023-03-25T15:16:47.410Z,1.90
2023-03-25T15:21:58.052Z,2.63
2023-03-25T15:27:01.905Z,2.90
2023-03-25T15:32:03.302Z,2.30
2023-03-25T15:37:15.631Z,3.05
2023-03-25T15:42:27.927Z,2.90
2023-03-25T15:47:34.631Z,2.95
2023-03-25T15:52:39.147Z,1.95
2023-03-25T15:57:44.164Z,1.80
2023-03-25T16:02:48.583Z,2.83
2023-03-25T16:07:50.279Z,2.00
2023-03-25T16:12:51.750Z,2.10
2023-03-25T16:17:53.494Z,2.10
2023-03-25T16:22:56.498Z,2.10
2023-03-25T16:28:01.576Z,2.67
2023-03-25T16:33:10.455Z,2.65
2023-03-25T16:38:17.542Z,2.30
2023-03-25T16:43:21.299Z,2.50
2023-03-25T16:48:25.498Z,2.80
2023-03-25T16:53:27.405Z,2.22
2023-03-25T16:58:29.157Z,2.40
2023-03-25T17:03:39.502Z,2.33
2023-03-25T17:08:40.937Z,2.47
2023-03-25T17:13:44.561Z,2.58
2023-03-25T17:18:47.731Z,2.95
2023-03-25T17:23:49.527Z,2.00
2023-03-25T17:28:50.889Z,1.80
2023-03-25T17:33:53.223Z,2.08
2023-03-25T17:38:55.897Z,3.13
2023-03-25T17:43:57.732Z,2.03
2023-03-25T17:48:59.972Z,2.40
2023-03-25T17:54:01.491Z,1.88
2023-03-25T17:59:04.571Z,2.20
2023-03-25T18:04:06.249Z,2.35
2023-03-25T18:09:14.711Z,2.25
2023-03-25T18:14:16.454Z,3.38
2023-03-25T18:19:19.352Z,2.03
2023-03-25T18:24:21.299Z,2.88
2023-03-25T18:29:24.489Z,2.65
2023-03-25T18:34:26.156Z,2.85
2023-03-25T18:39:28.114Z,3.10
2023-03-25T18:44:30.786Z,2.83
2023-03-25T18:49:32.373Z,2.65
2023-03-25T18:54:33.777Z,2.75
2023-03-25T18:59:35.478Z,2.55
2023-03-25T19:04:37.997Z,2.70
2023-03-25T19:09:40.322Z,2.53
2023-03-25T19:14:41.789Z,2.10
2023-03-25T19:19:43.297Z,2.70
2023-03-25T19:24:44.767Z,4.22
2023-03-25T19:29:46.795Z,2.78
2023-03-25T19:34:51.733Z,2.08
2023-03-25T19:39:54.886Z,2.55
2023-03-25T19:44:58.540Z,2.40
2023-03-25T19:50:00.327Z,2.22
2023-03-25T19:55:01.726Z,2.10
2023-03-25T20:00:09.882Z,3.00
2023-03-25T20:05:11.957Z,2.75
2023-03-25T20:10:20.133Z,2.08
2023-03-25T20:15:23.238Z,1.88
2023-03-25T20:20:24.959Z,2.17
2023-03-25T20:25:26.622Z,2.22
2023-03-25T20:30:28.243Z,2.85
2023-03-25T20:35:30.534Z,2.42
2023-03-25T20:40:43.522Z,2.15
2023-03-25T20:45:45.994Z,2.03
2023-03-25T20:50:47.546Z,2.20
2023-03-25T20:55:49.041Z,2.88
2023-03-25T21:00:50.694Z,1.73
2023-03-25T21:05:56.348Z,1.92
2023-03-25T21:10:58.469Z,1.80
2023-03-25T21:16:01.471Z,1.60
2023-03-25T21:21:03.643Z,2.50
2023-03-25T21:26:09.499Z,1.83
2023-03-25T21:31:16.968Z,2.25
2023-03-25T21:36:23.006Z,1.70
2023-03-25T21:41:25.015Z,1.77
2023-03-25T21:46:27.664Z,2.22
2023-03-25T21:51:35.843Z,1.90
2023-03-25T21:56:40.751Z,2.00
2023-03-25T22:01:42.554Z,1.92
2023-03-25T22:06:44.307Z,2.20
2023-03-25T22:11:45.807Z,2.40
2023-03-25T22:16:47.415Z,2.20
2023-03-25T22:21:48.832Z,2.30
2023-03-25T22:26:50.428Z,2.47
2023-03-25T22:31:55.699Z,1.80
2023-03-25T22:36:57.228Z,1.95
2023-03-25T22:41:58.647Z,1.67
2023-03-25T22:47:00.238Z,2.22
2023-03-25T22:52:01.632Z,1.88
2023-03-25T22:57:03.108Z,2.40
2023-03-25T23:02:04.744Z,2.10
2023-03-25T23:07:08.406Z,1.95
2023-03-25T23:12:30.809Z,1.70
2023-03-25T23:17:33.338Z,2.13
2023-03-25T23:22:34.775Z,2.28
2023-03-25T23:27:37.131Z,2.33
2023-03-25T23:32:39.839Z,2.25
2023-03-25T23:37:43.646Z,2.38
2023-03-25T23:42:45.080Z,2.10
2023-03-25T23:47:49.133Z,2.30
2023-03-25T23:52:50.573Z,1.95
2023-03-25T23:57:51.985Z,1.98
